Terminal Aerodrome Forecast
Issued by NWS

Home | Current Version | Previous Version | Text Only | Print | Product List | Glossary On
Versions: 1 2 3 4 5 6 7 8 9 10 11 12 13
513
FTUS43 KMQT 170520
TAFCMX
TAF
KCMX 170520Z 1706/1806 25010G17KT P6SM FEW150 WS010/24040KT
     FM170800 27010KT P6SM FEW150
     FM180000 17006KT P6SM FEW200=

USA.gov is the U.S. government's official web portal to all federal, state and local government web resources and services.